sensor_id;sensor_type;location;lat;lon;timestamp;P1;durP1;ratioP1;P2;durP2;ratioP2
15022;SDS011;19850;49.576;10.880;2022-12-07T00:03:47;5.20;;;4.80;;
15022;SDS011;19850;49.576;10.880;2022-12-07T00:07:52;5.37;;;4.90;;
15022;SDS011;19850;49.576;10.880;2022-12-07T00:11:56;4.90;;;4.40;;
15022;SDS011;19850;49.576;10.880;2022-12-07T00:16:00;4.90;;;4.50;;
15022;SDS011;19850;49.576;10.880;2022-12-07T00:20:04;5.00;;;4.60;;
15022;SDS011;19850;49.576;10.880;2022-12-07T00:24:09;5.77;;;5.23;;
15022;SDS011;19850;49.576;10.880;2022-12-07T00:28:13;6.10;;;5.50;;
15022;SDS011;19850;49.576;10.880;2022-12-07T00:32:16;5.80;;;5.30;;
15022;SDS011;19850;49.576;10.880;2022-12-07T00:36:20;5.70;;;5.20;;
15022;SDS011;19850;49.576;10.880;2022-12-07T00:40:29;5.40;;;4.90;;
15022;SDS011;19850;49.576;10.880;2022-12-07T00:44:32;5.93;;;5.43;;
15022;SDS011;19850;49.576;10.880;2022-12-07T00:48:35;6.67;;;6.07;;
15022;SDS011;19850;49.576;10.880;2022-12-07T00:52:37;6.30;;;5.80;;
15022;SDS011;19850;49.576;10.880;2022-12-07T00:56:42;7.13;;;6.43;;
15022;SDS011;19850;49.576;10.880;2022-12-07T01:00:45;7.00;;;6.40;;
15022;SDS011;19850;49.576;10.880;2022-12-07T01:04:48;7.07;;;6.40;;
15022;SDS011;19850;49.576;10.880;2022-12-07T01:08:51;7.97;;;7.17;;
15022;SDS011;19850;49.576;10.880;2022-12-07T01:12:55;7.90;;;6.90;;
15022;SDS011;19850;49.576;10.880;2022-12-07T01:16:58;7.70;;;7.00;;
15022;SDS011;19850;49.576;10.880;2022-12-07T01:21:01;7.13;;;6.43;;
15022;SDS011;19850;49.576;10.880;2022-12-07T01:25:05;7.90;;;7.20;;
15022;SDS011;19850;49.576;10.880;2022-12-07T01:29:10;8.00;;;7.30;;
15022;SDS011;19850;49.576;10.880;2022-12-07T01:33:12;7.00;;;6.30;;
15022;SDS011;19850;49.576;10.880;2022-12-07T01:37:15;7.80;;;7.10;;
15022;SDS011;19850;49.576;10.880;2022-12-07T01:41:19;7.47;;;6.50;;
15022;SDS011;19850;49.576;10.880;2022-12-07T01:45:36;7.33;;;6.63;;
15022;SDS011;19850;49.576;10.880;2022-12-07T01:49:42;7.20;;;6.53;;
15022;SDS011;19850;49.576;10.880;2022-12-07T01:53:46;7.43;;;6.73;;
15022;SDS011;19850;49.576;10.880;2022-12-07T01:57:49;7.63;;;6.93;;
15022;SDS011;19850;49.576;10.880;2022-12-07T02:01:54;7.90;;;7.07;;
15022;SDS011;19850;49.576;10.880;2022-12-07T02:05:58;6.83;;;6.20;;
15022;SDS011;19850;49.576;10.880;2022-12-07T02:10:11;7.50;;;6.67;;
15022;SDS011;19850;49.576;10.880;2022-12-07T02:14:15;7.97;;;7.17;;
15022;SDS011;19850;49.576;10.880;2022-12-07T02:18:21;7.03;;;6.33;;
15022;SDS011;19850;49.576;10.880;2022-12-07T02:22:36;8.03;;;6.70;;
15022;SDS011;19850;49.576;10.880;2022-12-07T02:27:11;8.63;;;7.40;;
15022;SDS011;19850;49.576;10.880;2022-12-07T02:31:36;7.90;;;7.20;;
15022;SDS011;19850;49.576;10.880;2022-12-07T02:35:43;8.30;;;7.57;;
15022;SDS011;19850;49.576;10.880;2022-12-07T02:39:50;8.50;;;7.70;;
15022;SDS011;19850;49.576;10.880;2022-12-07T02:43:55;8.87;;;8.00;;
15022;SDS011;19850;49.576;10.880;2022-12-07T02:48:00;8.53;;;7.73;;
15022;SDS011;19850;49.576;10.880;2022-12-07T02:52:04;8.53;;;7.73;;
15022;SDS011;19850;49.576;10.880;2022-12-07T02:56:09;8.87;;;8.07;;
15022;SDS011;19850;49.576;10.880;2022-12-07T03:00:17;9.70;;;8.73;;
15022;SDS011;19850;49.576;10.880;2022-12-07T03:04:27;9.13;;;8.23;;
15022;SDS011;19850;49.576;10.880;2022-12-07T03:08:43;9.47;;;8.40;;
15022;SDS011;19850;49.576;10.880;2022-12-07T03:12:52;9.47;;;8.53;;
15022;SDS011;19850;49.576;10.880;2022-12-07T03:17:00;10.10;;;9.00;;
15022;SDS011;19850;49.576;10.880;2022-12-07T03:21:11;10.40;;;9.30;;
15022;SDS011;19850;49.576;10.880;2022-12-07T03:25:18;10.23;;;9.23;;
15022;SDS011;19850;49.576;10.880;2022-12-07T03:29:22;9.27;;;8.37;;
15022;SDS011;19850;49.576;10.880;2022-12-07T03:33:28;10.30;;;9.20;;
15022;SDS011;19850;49.576;10.880;2022-12-07T03:37:36;10.70;;;8.80;;
15022;SDS011;19850;49.576;10.880;2022-12-07T03:41:42;11.03;;;9.50;;
15022;SDS011;19850;49.576;10.880;2022-12-07T03:45:48;10.63;;;9.53;;
15022;SDS011;19850;49.576;10.880;2022-12-07T03:49:57;10.33;;;9.33;;
15022;SDS011;19850;49.576;10.880;2022-12-07T03:54:05;9.57;;;8.67;;
15022;SDS011;19850;49.576;10.880;2022-12-07T03:58:14;10.63;;;9.53;;
15022;SDS011;19850;49.576;10.880;2022-12-07T04:02:18;10.53;;;9.43;;
15022;SDS011;19850;49.576;10.880;2022-12-07T04:06:22;12.00;;;10.10;;
15022;SDS011;19850;49.576;10.880;2022-12-07T04:10:26;10.33;;;9.23;;
15022;SDS011;19850;49.576;10.880;2022-12-07T04:14:29;10.80;;;9.70;;
15022;SDS011;19850;49.576;10.880;2022-12-07T04:18:32;11.07;;;9.93;;
15022;SDS011;19850;49.576;10.880;2022-12-07T04:22:34;11.33;;;10.13;;
15022;SDS011;19850;49.576;10.880;2022-12-07T04:26:38;11.37;;;9.73;;
15022;SDS011;19850;49.576;10.880;2022-12-07T04:30:41;12.03;;;9.87;;
15022;SDS011;19850;49.576;10.880;2022-12-07T04:34:44;12.57;;;10.00;;
15022;SDS011;19850;49.576;10.880;2022-12-07T04:38:52;12.50;;;10.97;;
15022;SDS011;19850;49.576;10.880;2022-12-07T04:42:57;12.87;;;11.13;;
15022;SDS011;19850;49.576;10.880;2022-12-07T04:46:59;12.97;;;11.47;;
15022;SDS011;19850;49.576;10.880;2022-12-07T04:51:02;13.43;;;12.00;;
15022;SDS011;19850;49.576;10.880;2022-12-07T04:55:06;12.90;;;11.07;;
15022;SDS011;19850;49.576;10.880;2022-12-07T04:59:10;14.00;;;12.00;;
15022;SDS011;19850;49.576;10.880;2022-12-07T05:03:14;13.97;;;11.97;;
15022;SDS011;19850;49.576;10.880;2022-12-07T05:07:16;14.03;;;11.97;;
15022;SDS011;19850;49.576;10.880;2022-12-07T05:11:19;13.13;;;11.67;;
15022;SDS011;19850;49.576;10.880;2022-12-07T05:15:43;14.77;;;12.30;;
15022;SDS011;19850;49.576;10.880;2022-12-07T05:19:46;14.03;;;12.53;;
15022;SDS011;19850;49.576;10.880;2022-12-07T05:23:49;14.33;;;12.37;;
15022;SDS011;19850;49.576;10.880;2022-12-07T05:27:52;14.17;;;12.10;;
15022;SDS011;19850;49.576;10.880;2022-12-07T05:31:58;14.37;;;12.60;;
15022;SDS011;19850;49.576;10.880;2022-12-07T05:36:01;14.47;;;12.93;;
15022;SDS011;19850;49.576;10.880;2022-12-07T05:40:07;14.47;;;12.03;;
15022;SDS011;19850;49.576;10.880;2022-12-07T05:44:10;13.67;;;12.13;;
15022;SDS011;19850;49.576;10.880;2022-12-07T05:48:14;12.70;;;11.40;;
15022;SDS011;19850;49.576;10.880;2022-12-07T05:52:17;15.77;;;13.37;;
15022;SDS011;19850;49.576;10.880;2022-12-07T05:56:20;16.60;;;13.20;;
15022;SDS011;19850;49.576;10.880;2022-12-07T06:00:22;13.30;;;11.87;;
15022;SDS011;19850;49.576;10.880;2022-12-07T06:04:27;14.07;;;12.57;;
15022;SDS011;19850;49.576;10.880;2022-12-07T06:08:31;14.23;;;12.43;;
15022;SDS011;19850;49.576;10.880;2022-12-07T06:12:34;14.83;;;12.93;;
15022;SDS011;19850;49.576;10.880;2022-12-07T06:16:39;14.37;;;12.80;;
15022;SDS011;19850;49.576;10.880;2022-12-07T06:20:43;14.20;;;12.70;;
15022;SDS011;19850;49.576;10.880;2022-12-07T06:24:46;15.20;;;12.73;;
15022;SDS011;19850;49.576;10.880;2022-12-07T06:28:49;12.90;;;11.60;;
15022;SDS011;19850;49.576;10.880;2022-12-07T06:32:51;13.63;;;12.23;;
15022;SDS011;19850;49.576;10.880;2022-12-07T06:36:56;13.00;;;11.53;;
15022;SDS011;19850;49.576;10.880;2022-12-07T06:40:58;12.97;;;11.57;;
15022;SDS011;19850;49.576;10.880;2022-12-07T06:45:01;12.37;;;11.03;;
15022;SDS011;19850;49.576;10.880;2022-12-07T06:49:04;12.97;;;11.33;;
15022;SDS011;19850;49.576;10.880;2022-12-07T06:53:09;12.13;;;10.93;;
15022;SDS011;19850;49.576;10.880;2022-12-07T06:57:12;12.30;;;11.07;;
15022;SDS011;19850;49.576;10.880;2022-12-07T07:01:16;14.00;;;11.73;;
15022;SDS011;19850;49.576;10.880;2022-12-07T07:05:20;12.93;;;11.40;;
15022;SDS011;19850;49.576;10.880;2022-12-07T07:09:24;14.43;;;12.80;;
15022;SDS011;19850;49.576;10.880;2022-12-07T07:13:27;13.50;;;12.10;;
15022;SDS011;19850;49.576;10.880;2022-12-07T07:17:30;15.80;;;12.87;;
15022;SDS011;19850;49.576;10.880;2022-12-07T07:21:33;14.57;;;12.97;;
15022;SDS011;19850;49.576;10.880;2022-12-07T07:25:37;14.27;;;12.67;;
15022;SDS011;19850;49.576;10.880;2022-12-07T07:29:40;16.47;;;13.30;;
15022;SDS011;19850;49.576;10.880;2022-12-07T07:33:42;16.90;;;13.77;;
15022;SDS011;19850;49.576;10.880;2022-12-07T07:37:45;18.07;;;14.60;;
15022;SDS011;19850;49.576;10.880;2022-12-07T07:41:49;17.80;;;14.73;;
15022;SDS011;19850;49.576;10.880;2022-12-07T07:45:52;17.43;;;14.30;;
15022;SDS011;19850;49.576;10.880;2022-12-07T07:49:55;16.83;;;14.77;;
15022;SDS011;19850;49.576;10.880;2022-12-07T07:53:58;15.00;;;13.40;;
15022;SDS011;19850;49.576;10.880;2022-12-07T07:58:02;15.93;;;14.23;;
15022;SDS011;19850;49.576;10.880;2022-12-07T08:02:05;14.73;;;13.17;;
15022;SDS011;19850;49.576;10.880;2022-12-07T08:06:07;16.83;;;14.13;;
15022;SDS011;19850;49.576;10.880;2022-12-07T08:10:12;16.10;;;13.97;;
15022;SDS011;19850;49.576;10.880;2022-12-07T08:14:16;15.50;;;13.10;;
15022;SDS011;19850;49.576;10.880;2022-12-07T08:18:19;17.03;;;13.90;;
15022;SDS011;19850;49.576;10.880;2022-12-07T08:22:22;14.30;;;12.80;;
15022;SDS011;19850;49.576;10.880;2022-12-07T08:26:25;13.73;;;12.33;;
15022;SDS011;19850;49.576;10.880;2022-12-07T08:30:29;14.33;;;12.03;;
15022;SDS011;19850;49.576;10.880;2022-12-07T08:34:32;14.13;;;11.80;;
15022;SDS011;19850;49.576;10.880;2022-12-07T08:38:35;12.97;;;11.27;;
15022;SDS011;19850;49.576;10.880;2022-12-07T08:42:38;12.33;;;11.03;;
15022;SDS011;19850;49.576;10.880;2022-12-07T08:46:44;12.57;;;11.17;;
15022;SDS011;19850;49.576;10.880;2022-12-07T08:50:49;11.27;;;9.63;;
15022;SDS011;19850;49.576;10.880;2022-12-07T08:54:53;11.47;;;10.27;;
15022;SDS011;19850;49.576;10.880;2022-12-07T08:58:55;10.90;;;9.40;;
15022;SDS011;19850;49.576;10.880;2022-12-07T09:03:00;10.90;;;9.80;;
15022;SDS011;19850;49.576;10.880;2022-12-07T09:07:04;10.83;;;9.30;;
15022;SDS011;19850;49.576;10.880;2022-12-07T09:11:07;11.03;;;9.63;;
15022;SDS011;19850;49.576;10.880;2022-12-07T09:15:10;10.90;;;9.80;;
15022;SDS011;19850;49.576;10.880;2022-12-07T09:19:14;11.63;;;10.30;;
15022;SDS011;19850;49.576;10.880;2022-12-07T09:23:16;11.50;;;9.93;;
15022;SDS011;19850;49.576;10.880;2022-12-07T09:27:19;10.77;;;9.67;;
15022;SDS011;19850;49.576;10.880;2022-12-07T09:31:22;11.53;;;9.53;;
15022;SDS011;19850;49.576;10.880;2022-12-07T09:35:28;10.43;;;9.43;;
15022;SDS011;19850;49.576;10.880;2022-12-07T09:39:30;12.40;;;9.80;;
15022;SDS011;19850;49.576;10.880;2022-12-07T09:43:34;10.93;;;8.97;;
15022;SDS011;19850;49.576;10.880;2022-12-07T09:47:38;12.97;;;10.90;;
15022;SDS011;19850;49.576;10.880;2022-12-07T09:51:42;16.73;;;13.13;;
15022;SDS011;19850;49.576;10.880;2022-12-07T09:55:44;20.93;;;15.87;;
15022;SDS011;19850;49.576;10.880;2022-12-07T09:59:47;13.73;;;11.63;;
15022;SDS011;19850;49.576;10.880;2022-12-07T10:03:50;10.63;;;9.57;;
15022;SDS011;19850;49.576;10.880;2022-12-07T10:07:56;10.40;;;9.30;;
15022;SDS011;19850;49.576;10.880;2022-12-07T10:12:04;11.47;;;10.27;;
15022;SDS011;19850;49.576;10.880;2022-12-07T10:16:24;10.43;;;8.23;;
15022;SDS011;19850;49.576;10.880;2022-12-07T10:20:34;8.40;;;7.53;;
15022;SDS011;19850;49.576;10.880;2022-12-07T10:24:38;9.40;;;8.17;;
15022;SDS011;19850;49.576;10.880;2022-12-07T10:28:43;8.10;;;7.40;;
15022;SDS011;19850;49.576;10.880;2022-12-07T10:32:46;10.03;;;9.13;;
15022;SDS011;19850;49.576;10.880;2022-12-07T10:36:49;11.03;;;9.93;;
15022;SDS011;19850;49.576;10.880;2022-12-07T10:41:03;11.63;;;10.43;;
15022;SDS011;19850;49.576;10.880;2022-12-07T10:45:08;10.90;;;9.80;;
15022;SDS011;19850;49.576;10.880;2022-12-07T10:49:25;11.53;;;10.37;;
15022;SDS011;19850;49.576;10.880;2022-12-07T10:53:43;11.10;;;9.97;;
15022;SDS011;19850;49.576;10.880;2022-12-07T10:58:06;10.40;;;9.40;;
15022;SDS011;19850;49.576;10.880;2022-12-07T11:02:24;11.30;;;10.20;;
15022;SDS011;19850;49.576;10.880;2022-12-07T11:06:30;9.60;;;8.77;;
15022;SDS011;19850;49.576;10.880;2022-12-07T11:10:38;11.10;;;10.00;;
15022;SDS011;19850;49.576;10.880;2022-12-07T11:14:47;11.27;;;10.10;;
15022;SDS011;19850;49.576;10.880;2022-12-07T11:19:06;11.13;;;10.03;;
15022;SDS011;19850;49.576;10.880;2022-12-07T11:23:29;11.67;;;9.33;;
15022;SDS011;19850;49.576;10.880;2022-12-07T11:27:37;10.73;;;9.03;;
15022;SDS011;19850;49.576;10.880;2022-12-07T11:31:49;10.97;;;9.83;;
15022;SDS011;19850;49.576;10.880;2022-12-07T11:36:02;11.47;;;10.27;;
15022;SDS011;19850;49.576;10.880;2022-12-07T11:40:14;10.60;;;9.50;;
15022;SDS011;19850;49.576;10.880;2022-12-07T11:44:24;10.50;;;9.03;;
15022;SDS011;19850;49.576;10.880;2022-12-07T11:48:33;11.13;;;9.53;;
15022;SDS011;19850;49.576;10.880;2022-12-07T11:52:41;12.27;;;10.97;;
15022;SDS011;19850;49.576;10.880;2022-12-07T11:56:46;11.20;;;10.00;;
15022;SDS011;19850;49.576;10.880;2022-12-07T12:00:50;10.07;;;9.07;;
15022;SDS011;19850;49.576;10.880;2022-12-07T12:04:58;10.37;;;9.27;;
15022;SDS011;19850;49.576;10.880;2022-12-07T12:09:05;12.18;;;11.00;;
15022;SDS011;19850;49.576;10.880;2022-12-07T12:22:47;9.30;;;8.27;;
15022;SDS011;19850;49.576;10.880;2022-12-07T12:26:53;10.17;;;9.17;;
15022;SDS011;19850;49.576;10.880;2022-12-07T12:31:05;9.30;;;8.40;;
15022;SDS011;19850;49.576;10.880;2022-12-07T12:39:40;8.73;;;7.90;;
15022;SDS011;19850;49.576;10.880;2022-12-07T12:44:40;10.37;;;9.03;;
15022;SDS011;19850;49.576;10.880;2022-12-07T12:48:44;10.00;;;9.00;;
15022;SDS011;19850;49.576;10.880;2022-12-07T12:52:54;13.90;;;11.80;;
15022;SDS011;19850;49.576;10.880;2022-12-07T12:57:05;10.23;;;9.10;;
15022;SDS011;19850;49.576;10.880;2022-12-07T13:05:46;11.70;;;10.00;;
15022;SDS011;19850;49.576;10.880;2022-12-07T13:09:49;10.55;;;9.52;;
15022;SDS011;19850;49.576;10.880;2022-12-07T13:13:56;9.57;;;8.57;;
15022;SDS011;19850;49.576;10.880;2022-12-07T13:18:35;9.43;;;8.50;;
15022;SDS011;19850;49.576;10.880;2022-12-07T13:22:41;9.60;;;8.37;;
15022;SDS011;19850;49.576;10.880;2022-12-07T13:26:45;8.80;;;7.90;;
15022;SDS011;19850;49.576;10.880;2022-12-07T13:30:53;10.33;;;8.20;;
15022;SDS011;19850;49.576;10.880;2022-12-07T13:39:46;9.32;;;8.38;;
15022;SDS011;19850;49.576;10.880;2022-12-07T13:43:51;9.30;;;8.40;;
15022;SDS011;19850;49.576;10.880;2022-12-07T13:47:55;9.07;;;8.18;;
15022;SDS011;19850;49.576;10.880;2022-12-07T13:52:08;9.83;;;8.83;;
15022;SDS011;19850;49.576;10.880;2022-12-07T13:56:17;9.00;;;7.93;;
15022;SDS011;19850;49.576;10.880;2022-12-07T14:00:20;10.77;;;9.30;;
15022;SDS011;19850;49.576;10.880;2022-12-07T14:04:29;12.37;;;9.60;;
15022;SDS011;19850;49.576;10.880;2022-12-07T14:08:34;13.77;;;11.27;;
15022;SDS011;19850;49.576;10.880;2022-12-07T14:12:40;10.90;;;9.10;;
15022;SDS011;19850;49.576;10.880;2022-12-07T14:16:55;14.87;;;11.23;;
15022;SDS011;19850;49.576;10.880;2022-12-07T14:21:03;11.50;;;9.60;;
15022;SDS011;19850;49.576;10.880;2022-12-07T14:25:17;7.37;;;6.37;;
15022;SDS011;19850;49.576;10.880;2022-12-07T14:29:29;7.67;;;6.63;;
15022;SDS011;19850;49.576;10.880;2022-12-07T14:33:34;17.97;;;13.77;;
15022;SDS011;19850;49.576;10.880;2022-12-07T14:37:37;12.30;;;11.00;;
15022;SDS011;19850;49.576;10.880;2022-12-07T14:41:41;9.33;;;7.40;;
15022;SDS011;19850;49.576;10.880;2022-12-07T14:45:54;9.57;;;8.60;;
15022;SDS011;19850;49.576;10.880;2022-12-07T14:49:57;9.17;;;7.47;;
15022;SDS011;19850;49.576;10.880;2022-12-07T14:54:06;11.73;;;10.53;;
15022;SDS011;19850;49.576;10.880;2022-12-07T14:58:14;10.70;;;9.67;;
15022;SDS011;19850;49.576;10.880;2022-12-07T15:02:19;9.30;;;8.03;;
15022;SDS011;19850;49.576;10.880;2022-12-07T15:06:21;8.10;;;7.30;;
15022;SDS011;19850;49.576;10.880;2022-12-07T15:10:25;8.10;;;7.30;;
15022;SDS011;19850;49.576;10.880;2022-12-07T15:14:31;8.30;;;7.40;;
15022;SDS011;19850;49.576;10.880;2022-12-07T15:18:35;8.27;;;7.43;;
15022;SDS011;19850;49.576;10.880;2022-12-07T15:22:37;10.40;;;8.10;;
15022;SDS011;19850;49.576;10.880;2022-12-07T15:26:40;9.20;;;8.30;;
15022;SDS011;19850;49.576;10.880;2022-12-07T15:30:43;11.33;;;9.87;;
15022;SDS011;19850;49.576;10.880;2022-12-07T15:34:48;10.23;;;9.17;;
15022;SDS011;19850;49.576;10.880;2022-12-07T15:38:51;14.00;;;11.27;;
15022;SDS011;19850;49.576;10.880;2022-12-07T15:43:14;12.63;;;11.30;;
15022;SDS011;19850;49.576;10.880;2022-12-07T15:47:48;14.43;;;10.63;;
15022;SDS011;19850;49.576;10.880;2022-12-07T15:52:11;12.40;;;10.50;;
15022;SDS011;19850;49.576;10.880;2022-12-07T15:56:14;11.87;;;10.17;;
15022;SDS011;19850;49.576;10.880;2022-12-07T16:00:17;16.40;;;13.63;;
15022;SDS011;19850;49.576;10.880;2022-12-07T16:04:22;15.43;;;13.30;;
15022;SDS011;19850;49.576;10.880;2022-12-07T16:08:25;16.07;;;14.17;;
15022;SDS011;19850;49.576;10.880;2022-12-07T16:12:37;13.30;;;9.93;;
15022;SDS011;19850;49.576;10.880;2022-12-07T16:16:42;11.00;;;9.20;;
15022;SDS011;19850;49.576;10.880;2022-12-07T16:20:51;11.87;;;10.27;;
15022;SDS011;19850;49.576;10.880;2022-12-07T16:24:57;11.60;;;9.40;;
15022;SDS011;19850;49.576;10.880;2022-12-07T16:29:00;11.90;;;9.17;;
15022;SDS011;19850;49.576;10.880;2022-12-07T16:33:03;11.30;;;9.63;;
15022;SDS011;19850;49.576;10.880;2022-12-07T16:37:07;10.10;;;9.07;;
15022;SDS011;19850;49.576;10.880;2022-12-07T16:41:10;13.00;;;11.53;;
15022;SDS011;19850;49.576;10.880;2022-12-07T16:45:13;11.80;;;10.60;;
15022;SDS011;19850;49.576;10.880;2022-12-07T16:49:21;10.67;;;9.57;;
15022;SDS011;19850;49.576;10.880;2022-12-07T16:53:26;13.23;;;11.43;;
15022;SDS011;19850;49.576;10.880;2022-12-07T16:57:29;17.03;;;13.40;;
15022;SDS011;19850;49.576;10.880;2022-12-07T17:01:32;15.80;;;13.37;;
15022;SDS011;19850;49.576;10.880;2022-12-07T17:05:37;11.97;;;10.77;;
15022;SDS011;19850;49.576;10.880;2022-12-07T17:09:42;14.03;;;11.93;;
15022;SDS011;19850;49.576;10.880;2022-12-07T17:13:44;13.23;;;11.70;;
15022;SDS011;19850;49.576;10.880;2022-12-07T17:18:05;14.87;;;11.67;;
15022;SDS011;19850;49.576;10.880;2022-12-07T17:22:08;13.10;;;11.63;;
15022;SDS011;19850;49.576;10.880;2022-12-07T17:26:15;14.43;;;12.70;;
15022;SDS011;19850;49.576;10.880;2022-12-07T17:30:19;14.43;;;12.93;;
15022;SDS011;19850;49.576;10.880;2022-12-07T17:34:22;14.47;;;12.40;;
15022;SDS011;19850;49.576;10.880;2022-12-07T17:38:25;12.87;;;11.53;;
15022;SDS011;19850;49.576;10.880;2022-12-07T17:42:29;12.43;;;11.17;;
15022;SDS011;19850;49.576;10.880;2022-12-07T17:46:38;13.00;;;11.70;;
15022;SDS011;19850;49.576;10.880;2022-12-07T17:50:41;15.10;;;11.47;;
15022;SDS011;19850;49.576;10.880;2022-12-07T17:55:02;16.23;;;12.93;;
15022;SDS011;19850;49.576;10.880;2022-12-07T17:59:07;13.90;;;12.07;;
15022;SDS011;19850;49.576;10.880;2022-12-07T18:03:10;13.10;;;11.60;;
15022;SDS011;19850;49.576;10.880;2022-12-07T18:07:13;13.73;;;12.07;;
15022;SDS011;19850;49.576;10.880;2022-12-07T18:11:16;14.97;;;12.23;;
15022;SDS011;19850;49.576;10.880;2022-12-07T18:15:20;15.40;;;12.57;;
15022;SDS011;19850;49.576;10.880;2022-12-07T18:19:24;12.80;;;11.17;;
15022;SDS011;19850;49.576;10.880;2022-12-07T18:23:26;13.40;;;11.73;;
15022;SDS011;19850;49.576;10.880;2022-12-07T18:27:29;14.33;;;11.70;;
15022;SDS011;19850;49.576;10.880;2022-12-07T18:31:33;12.77;;;11.47;;
15022;SDS011;19850;49.576;10.880;2022-12-07T18:35:37;12.13;;;10.93;;
15022;SDS011;19850;49.576;10.880;2022-12-07T18:39:40;12.43;;;11.13;;
15022;SDS011;19850;49.576;10.880;2022-12-07T18:43:43;13.43;;;11.57;;
15022;SDS011;19850;49.576;10.880;2022-12-07T18:47:47;14.63;;;11.73;;
15022;SDS011;19850;49.576;10.880;2022-12-07T18:51:50;13.97;;;11.20;;
15022;SDS011;19850;49.576;10.880;2022-12-07T18:55:59;13.63;;;12.32;;
15022;SDS011;19850;49.576;10.880;2022-12-07T19:00:03;13.67;;;11.70;;
15022;SDS011;19850;49.576;10.880;2022-12-07T19:04:08;14.33;;;11.47;;
15022;SDS011;19850;49.576;10.880;2022-12-07T19:08:11;12.47;;;11.13;;
15022;SDS011;19850;49.576;10.880;2022-12-07T19:12:14;11.17;;;8.70;;
15022;SDS011;19850;49.576;10.880;2022-12-07T19:16:17;12.53;;;11.03;;
15022;SDS011;19850;49.576;10.880;2022-12-07T19:20:22;11.33;;;10.23;;
15022;SDS011;19850;49.576;10.880;2022-12-07T19:24:25;11.20;;;10.00;;
15022;SDS011;19850;49.576;10.880;2022-12-07T19:28:28;11.80;;;10.40;;
15022;SDS011;19850;49.576;10.880;2022-12-07T19:32:30;11.40;;;10.30;;
15022;SDS011;19850;49.576;10.880;2022-12-07T19:36:35;12.27;;;10.90;;
15022;SDS011;19850;49.576;10.880;2022-12-07T19:40:37;13.80;;;11.37;;
15022;SDS011;19850;49.576;10.880;2022-12-07T19:44:40;14.47;;;11.67;;
15022;SDS011;19850;49.576;10.880;2022-12-07T19:48:43;12.20;;;10.90;;
15022;SDS011;19850;49.576;10.880;2022-12-07T19:52:47;13.43;;;10.57;;
15022;SDS011;19850;49.576;10.880;2022-12-07T19:56:50;11.50;;;10.17;;
15022;SDS011;19850;49.576;10.880;2022-12-07T20:00:53;11.67;;;10.47;;
15022;SDS011;19850;49.576;10.880;2022-12-07T20:04:56;12.90;;;10.80;;
15022;SDS011;19850;49.576;10.880;2022-12-07T20:09:08;12.17;;;10.87;;
15022;SDS011;19850;49.576;10.880;2022-12-07T20:13:11;14.77;;;12.20;;
15022;SDS011;19850;49.576;10.880;2022-12-07T20:17:32;13.77;;;11.67;;
15022;SDS011;19850;49.576;10.880;2022-12-07T20:21:35;13.23;;;10.93;;
15022;SDS011;19850;49.576;10.880;2022-12-07T20:25:40;17.90;;;12.10;;
15022;SDS011;19850;49.576;10.880;2022-12-07T20:29:42;14.07;;;12.47;;
15022;SDS011;19850;49.576;10.880;2022-12-07T20:33:45;17.63;;;13.57;;
15022;SDS011;19850;49.576;10.880;2022-12-07T20:37:48;14.20;;;12.67;;
15022;SDS011;19850;49.576;10.880;2022-12-07T20:41:52;15.00;;;12.83;;
15022;SDS011;19850;49.576;10.880;2022-12-07T20:46:12;16.20;;;12.73;;
15022;SDS011;19850;49.576;10.880;2022-12-07T20:50:15;13.67;;;12.27;;
15022;SDS011;19850;49.576;10.880;2022-12-07T20:54:18;13.07;;;11.53;;
15022;SDS011;19850;49.576;10.880;2022-12-07T20:58:22;13.80;;;12.33;;
15022;SDS011;19850;49.576;10.880;2022-12-07T21:02:29;14.57;;;12.10;;
15022;SDS011;19850;49.576;10.880;2022-12-07T21:06:32;14.53;;;10.83;;
15022;SDS011;19850;49.576;10.880;2022-12-07T21:10:34;14.73;;;11.50;;
15022;SDS011;19850;49.576;10.880;2022-12-07T21:14:39;14.27;;;12.43;;
15022;SDS011;19850;49.576;10.880;2022-12-07T21:18:43;13.63;;;11.80;;
15022;SDS011;19850;49.576;10.880;2022-12-07T21:22:48;15.67;;;12.10;;
15022;SDS011;19850;49.576;10.880;2022-12-07T21:26:50;13.97;;;11.83;;
15022;SDS011;19850;49.576;10.880;2022-12-07T21:30:57;12.73;;;11.27;;
15022;SDS011;19850;49.576;10.880;2022-12-07T21:35:16;13.53;;;11.13;;
15022;SDS011;19850;49.576;10.880;2022-12-07T21:39:19;14.93;;;11.60;;
15022;SDS011;19850;49.576;10.880;2022-12-07T21:43:21;16.83;;;11.27;;
15022;SDS011;19850;49.576;10.880;2022-12-07T21:47:26;14.73;;;11.50;;
15022;SDS011;19850;49.576;10.880;2022-12-07T21:51:28;13.07;;;11.67;;
15022;SDS011;19850;49.576;10.880;2022-12-07T21:55:32;13.97;;;12.13;;
15022;SDS011;19850;49.576;10.880;2022-12-07T21:59:34;21.80;;;11.87;;
15022;SDS011;19850;49.576;10.880;2022-12-07T22:03:39;16.90;;;12.73;;
15022;SDS011;19850;49.576;10.880;2022-12-07T22:07:41;16.83;;;12.50;;
15022;SDS011;19850;49.576;10.880;2022-12-07T22:11:44;15.33;;;12.23;;
15022;SDS011;19850;49.576;10.880;2022-12-07T22:15:47;14.07;;;12.27;;
15022;SDS011;19850;49.576;10.880;2022-12-07T22:19:52;15.00;;;13.33;;
15022;SDS011;19850;49.576;10.880;2022-12-07T22:23:54;15.13;;;13.53;;
15022;SDS011;19850;49.576;10.880;2022-12-07T22:27:57;17.20;;;14.30;;
15022;SDS011;19850;49.576;10.880;2022-12-07T22:32:00;14.87;;;12.27;;
15022;SDS011;19850;49.576;10.880;2022-12-07T22:36:24;13.57;;;11.83;;
15022;SDS011;19850;49.576;10.880;2022-12-07T22:40:28;15.17;;;12.13;;
15022;SDS011;19850;49.576;10.880;2022-12-07T22:44:31;16.40;;;13.20;;
15022;SDS011;19850;49.576;10.880;2022-12-07T22:48:33;16.00;;;12.90;;
15022;SDS011;19850;49.576;10.880;2022-12-07T22:52:38;16.07;;;12.87;;
15022;SDS011;19850;49.576;10.880;2022-12-07T22:56:41;14.47;;;12.30;;
15022;SDS011;19850;49.576;10.880;2022-12-07T23:00:44;14.33;;;11.80;;
15022;SDS011;19850;49.576;10.880;2022-12-07T23:04:47;14.10;;;12.13;;
15022;SDS011;19850;49.576;10.880;2022-12-07T23:08:51;16.37;;;13.40;;
15022;SDS011;19850;49.576;10.880;2022-12-07T23:12:54;13.97;;;12.30;;
15022;SDS011;19850;49.576;10.880;2022-12-07T23:17:14;15.90;;;12.80;;
15022;SDS011;19850;49.576;10.880;2022-12-07T23:21:17;17.47;;;13.63;;
15022;SDS011;19850;49.576;10.880;2022-12-07T23:25:22;16.23;;;13.20;;
15022;SDS011;19850;49.576;10.880;2022-12-07T23:29:24;15.00;;;13.17;;
15022;SDS011;19850;49.576;10.880;2022-12-07T23:33:28;16.60;;;13.63;;
15022;SDS011;19850;49.576;10.880;2022-12-07T23:37:30;15.67;;;13.20;;
15022;SDS011;19850;49.576;10.880;2022-12-07T23:41:35;18.27;;;14.13;;
15022;SDS011;19850;49.576;10.880;2022-12-07T23:45:37;16.53;;;13.30;;
15022;SDS011;19850;49.576;10.880;2022-12-07T23:49:40;16.80;;;13.70;;
15022;SDS011;19850;49.576;10.880;2022-12-07T23:53:44;15.70;;;13.20;;
15022;SDS011;19850;49.576;10.880;2022-12-07T23:57:49;17.37;;;14.43;;
